sensor_id;sensor_type;location;lat;lon;timestamp;temperature;humidity
23379;DHT22;11862;46.070;13.222;2022-11-15T00:00:25;11.40;99.90
23379;DHT22;11862;46.070;13.222;2022-11-15T00:02:55;11.30;99.90
23379;DHT22;11862;46.070;13.222;2022-11-15T00:05:21;11.30;99.90
23379;DHT22;11862;46.070;13.222;2022-11-15T00:07:47;11.20;99.90
23379;DHT22;11862;46.070;13.222;2022-11-15T00:10:13;11.30;99.90
23379;DHT22;11862;46.070;13.222;2022-11-15T00:12:39;11.30;99.90
23379;DHT22;11862;46.070;13.222;2022-11-15T00:15:05;11.30;99.90
23379;DHT22;11862;46.070;13.222;2022-11-15T00:17:31;11.40;99.90
23379;DHT22;11862;46.070;13.222;2022-11-15T00:19:57;11.30;99.90
23379;DHT22;11862;46.070;13.222;2022-11-15T00:22:23;11.30;99.90
23379;DHT22;11862;46.070;13.222;2022-11-15T00:24:49;11.20;99.90
23379;DHT22;11862;46.070;13.222;2022-11-15T00:27:14;11.10;99.90
23379;DHT22;11862;46.070;13.222;2022-11-15T00:29:40;11.20;99.90
23379;DHT22;11862;46.070;13.222;2022-11-15T00:32:11;11.10;99.90
23379;DHT22;11862;46.070;13.222;2022-11-15T00:34:36;11.10;99.90
23379;DHT22;11862;46.070;13.222;2022-11-15T00:37:02;11.00;99.90
23379;DHT22;11862;46.070;13.222;2022-11-15T00:39:28;11.00;99.90
23379;DHT22;11862;46.070;13.222;2022-11-15T00:41:54;11.00;99.90
23379;DHT22;11862;46.070;13.222;2022-11-15T00:44:19;11.10;99.90
23379;DHT22;11862;46.070;13.222;2022-11-15T00:46:45;11.10;99.90
23379;DHT22;11862;46.070;13.222;2022-11-15T00:49:11;11.10;99.90
23379;DHT22;11862;46.070;13.222;2022-11-15T00:51:37;11.00;99.90
23379;DHT22;11862;46.070;13.222;2022-11-15T00:54:03;11.00;99.90
23379;DHT22;11862;46.070;13.222;2022-11-15T00:56:29;11.00;99.90
23379;DHT22;11862;46.070;13.222;2022-11-15T00:58:54;11.00;99.90
23379;DHT22;11862;46.070;13.222;2022-11-15T01:01:20;11.00;99.90
23379;DHT22;11862;46.070;13.222;2022-11-15T01:03:46;11.00;99.90
23379;DHT22;11862;46.070;13.222;2022-11-15T01:06:12;11.00;99.90
23379;DHT22;11862;46.070;13.222;2022-11-15T01:08:39;10.90;99.90
23379;DHT22;11862;46.070;13.222;2022-11-15T01:11:10;10.90;99.90
23379;DHT22;11862;46.070;13.222;2022-11-15T01:13:38;10.90;99.90
23379;DHT22;11862;46.070;13.222;2022-11-15T01:16:09;10.80;99.90
23379;DHT22;11862;46.070;13.222;2022-11-15T01:18:36;10.80;99.90
23379;DHT22;11862;46.070;13.222;2022-11-15T01:21:09;10.70;99.90
23379;DHT22;11862;46.070;13.222;2022-11-15T01:23:36;10.70;99.90
23379;DHT22;11862;46.070;13.222;2022-11-15T01:26:06;10.70;99.90
23379;DHT22;11862;46.070;13.222;2022-11-15T01:28:33;10.80;99.90
23379;DHT22;11862;46.070;13.222;2022-11-15T01:31:01;10.80;99.90
23379;DHT22;11862;46.070;13.222;2022-11-15T01:33:28;10.90;99.90
23379;DHT22;11862;46.070;13.222;2022-11-15T01:35:54;10.90;99.90
23379;DHT22;11862;46.070;13.222;2022-11-15T01:38:21;10.90;99.90
23379;DHT22;11862;46.070;13.222;2022-11-15T01:40:48;10.80;99.90
23379;DHT22;11862;46.070;13.222;2022-11-15T01:43:22;10.90;99.90
23379;DHT22;11862;46.070;13.222;2022-11-15T01:46:19;10.80;99.90
23379;DHT22;11862;46.070;13.222;2022-11-15T01:48:38;10.70;99.90
23379;DHT22;11862;46.070;13.222;2022-11-15T01:51:07;10.80;99.90
23379;DHT22;11862;46.070;13.222;2022-11-15T01:53:35;10.70;99.90
23379;DHT22;11862;46.070;13.222;2022-11-15T01:56:06;10.70;99.90
23379;DHT22;11862;46.070;13.222;2022-11-15T01:58:34;10.70;99.90
23379;DHT22;11862;46.070;13.222;2022-11-15T02:01:03;10.70;99.90
23379;DHT22;11862;46.070;13.222;2022-11-15T02:03:44;10.60;99.90
23379;DHT22;11862;46.070;13.222;2022-11-15T02:06:12;10.70;99.90
23379;DHT22;11862;46.070;13.222;2022-11-15T02:08:38;10.60;99.90
23379;DHT22;11862;46.070;13.222;2022-11-15T02:11:07;10.50;99.90
23379;DHT22;11862;46.070;13.222;2022-11-15T02:13:33;10.50;99.90
23379;DHT22;11862;46.070;13.222;2022-11-15T02:18:41;10.40;99.90
23379;DHT22;11862;46.070;13.222;2022-11-15T02:21:36;10.50;99.90
23379;DHT22;11862;46.070;13.222;2022-11-15T02:32:17;10.60;99.90
23379;DHT22;11862;46.070;13.222;2022-11-15T02:35:11;10.50;99.90
23379;DHT22;11862;46.070;13.222;2022-11-15T02:40:52;10.50;99.90
23379;DHT22;11862;46.070;13.222;2022-11-15T02:43:29;10.60;99.90
23379;DHT22;11862;46.070;13.222;2022-11-15T02:49:11;10.60;99.90
23379;DHT22;11862;46.070;13.222;2022-11-15T02:51:38;10.70;99.90
23379;DHT22;11862;46.070;13.222;2022-11-15T02:54:05;10.70;99.90
23379;DHT22;11862;46.070;13.222;2022-11-15T02:56:31;10.60;99.90
23379;DHT22;11862;46.070;13.222;2022-11-15T03:02:23;10.70;99.90
23379;DHT22;11862;46.070;13.222;2022-11-15T03:04:57;10.60;99.90
23379;DHT22;11862;46.070;13.222;2022-11-15T03:07:32;10.60;99.90
23379;DHT22;11862;46.070;13.222;2022-11-15T03:10:54;10.50;99.90
23379;DHT22;11862;46.070;13.222;2022-11-15T03:15:45;10.50;99.90
23379;DHT22;11862;46.070;13.222;2022-11-15T03:19:01;10.50;99.90
23379;DHT22;11862;46.070;13.222;2022-11-15T03:21:08;10.40;99.90
23379;DHT22;11862;46.070;13.222;2022-11-15T03:23:38;10.50;99.90
23379;DHT22;11862;46.070;13.222;2022-11-15T03:26:08;10.50;99.90
23379;DHT22;11862;46.070;13.222;2022-11-15T03:28:42;10.50;99.90
23379;DHT22;11862;46.070;13.222;2022-11-15T03:31:12;10.50;99.90
23379;DHT22;11862;46.070;13.222;2022-11-15T03:33:59;10.50;99.90
23379;DHT22;11862;46.070;13.222;2022-11-15T03:36:27;10.60;99.90
23379;DHT22;11862;46.070;13.222;2022-11-15T03:39:01;10.60;99.90
23379;DHT22;11862;46.070;13.222;2022-11-15T03:41:46;10.60;99.90
23379;DHT22;11862;46.070;13.222;2022-11-15T03:47:34;10.60;99.90
23379;DHT22;11862;46.070;13.222;2022-11-15T03:50:05;10.60;99.90
23379;DHT22;11862;46.070;13.222;2022-11-15T03:52:34;10.70;99.90
23379;DHT22;11862;46.070;13.222;2022-11-15T03:55:02;10.60;99.90
23379;DHT22;11862;46.070;13.222;2022-11-15T03:57:29;10.60;99.90
23379;DHT22;11862;46.070;13.222;2022-11-15T03:59:55;10.60;99.90
23379;DHT22;11862;46.070;13.222;2022-11-15T04:02:21;10.50;99.90
23379;DHT22;11862;46.070;13.222;2022-11-15T04:04:46;10.50;99.90
23379;DHT22;11862;46.070;13.222;2022-11-15T04:07:12;10.50;99.90
23379;DHT22;11862;46.070;13.222;2022-11-15T04:09:38;10.40;99.90
23379;DHT22;11862;46.070;13.222;2022-11-15T04:12:24;10.50;99.90
23379;DHT22;11862;46.070;13.222;2022-11-15T04:14:56;10.50;99.90
23379;DHT22;11862;46.070;13.222;2022-11-15T04:17:45;10.50;99.90
23379;DHT22;11862;46.070;13.222;2022-11-15T04:23:03;10.40;99.90
23379;DHT22;11862;46.070;13.222;2022-11-15T04:25:50;10.40;99.90
23379;DHT22;11862;46.070;13.222;2022-11-15T04:28:16;10.60;99.90
23379;DHT22;11862;46.070;13.222;2022-11-15T04:30:42;10.60;99.90
23379;DHT22;11862;46.070;13.222;2022-11-15T04:33:08;10.50;99.90
23379;DHT22;11862;46.070;13.222;2022-11-15T04:35:34;10.40;99.90
23379;DHT22;11862;46.070;13.222;2022-11-15T04:38:01;10.40;99.90
23379;DHT22;11862;46.070;13.222;2022-11-15T04:40:27;10.40;99.90
23379;DHT22;11862;46.070;13.222;2022-11-15T04:42:52;10.40;99.90
23379;DHT22;11862;46.070;13.222;2022-11-15T04:45:18;10.40;99.90
23379;DHT22;11862;46.070;13.222;2022-11-15T04:47:45;10.40;99.90
23379;DHT22;11862;46.070;13.222;2022-11-15T04:50:12;10.40;99.90
23379;DHT22;11862;46.070;13.222;2022-11-15T04:52:51;10.40;99.90
23379;DHT22;11862;46.070;13.222;2022-11-15T04:55:17;10.30;99.90
23379;DHT22;11862;46.070;13.222;2022-11-15T04:57:43;10.30;99.90
23379;DHT22;11862;46.070;13.222;2022-11-15T05:00:14;10.30;99.90
23379;DHT22;11862;46.070;13.222;2022-11-15T05:02:41;10.30;99.90
23379;DHT22;11862;46.070;13.222;2022-11-15T05:05:25;10.30;99.90
23379;DHT22;11862;46.070;13.222;2022-11-15T05:07:51;10.30;99.90
23379;DHT22;11862;46.070;13.222;2022-11-15T05:10:17;10.30;99.90
23379;DHT22;11862;46.070;13.222;2022-11-15T05:12:43;10.30;99.90
23379;DHT22;11862;46.070;13.222;2022-11-15T05:15:09;10.40;99.90
23379;DHT22;11862;46.070;13.222;2022-11-15T05:17:35;10.30;99.90
23379;DHT22;11862;46.070;13.222;2022-11-15T05:20:01;10.40;99.90
23379;DHT22;11862;46.070;13.222;2022-11-15T05:22:27;10.40;99.90
23379;DHT22;11862;46.070;13.222;2022-11-15T05:24:53;10.30;99.90
23379;DHT22;11862;46.070;13.222;2022-11-15T05:27:18;10.30;99.90
23379;DHT22;11862;46.070;13.222;2022-11-15T05:29:44;10.30;99.90
23379;DHT22;11862;46.070;13.222;2022-11-15T05:32:11;10.30;99.90
23379;DHT22;11862;46.070;13.222;2022-11-15T05:34:37;10.30;99.90
23379;DHT22;11862;46.070;13.222;2022-11-15T05:37:04;10.30;99.90
23379;DHT22;11862;46.070;13.222;2022-11-15T05:39:30;10.40;99.90
23379;DHT22;11862;46.070;13.222;2022-11-15T05:42:01;10.40;99.90
23379;DHT22;11862;46.070;13.222;2022-11-15T05:44:31;10.40;99.90
23379;DHT22;11862;46.070;13.222;2022-11-15T05:46:57;10.30;99.90
23379;DHT22;11862;46.070;13.222;2022-11-15T05:49:27;10.30;99.90
23379;DHT22;11862;46.070;13.222;2022-11-15T05:51:55;10.30;99.90
23379;DHT22;11862;46.070;13.222;2022-11-15T05:54:22;10.30;99.90
23379;DHT22;11862;46.070;13.222;2022-11-15T05:56:49;10.30;99.90
23379;DHT22;11862;46.070;13.222;2022-11-15T05:59:15;10.20;99.90
23379;DHT22;11862;46.070;13.222;2022-11-15T06:01:41;10.30;99.90
23379;DHT22;11862;46.070;13.222;2022-11-15T06:04:07;10.30;99.90
23379;DHT22;11862;46.070;13.222;2022-11-15T06:06:33;10.30;99.90
23379;DHT22;11862;46.070;13.222;2022-11-15T06:08:59;10.30;99.90
23379;DHT22;11862;46.070;13.222;2022-11-15T06:11:24;10.30;99.90
23379;DHT22;11862;46.070;13.222;2022-11-15T06:13:50;10.40;99.90
23379;DHT22;11862;46.070;13.222;2022-11-15T06:16:16;10.40;99.90
23379;DHT22;11862;46.070;13.222;2022-11-15T06:18:42;10.30;99.90
23379;DHT22;11862;46.070;13.222;2022-11-15T06:21:08;10.30;99.90
23379;DHT22;11862;46.070;13.222;2022-11-15T06:23:34;10.30;99.90
23379;DHT22;11862;46.070;13.222;2022-11-15T06:26:01;10.30;99.90
23379;DHT22;11862;46.070;13.222;2022-11-15T06:28:31;10.30;99.90
23379;DHT22;11862;46.070;13.222;2022-11-15T06:31:09;10.50;99.90
23379;DHT22;11862;46.070;13.222;2022-11-15T06:33:39;10.50;99.90
23379;DHT22;11862;46.070;13.222;2022-11-15T06:36:11;10.70;99.90
23379;DHT22;11862;46.070;13.222;2022-11-15T06:38:45;10.70;99.90
23379;DHT22;11862;46.070;13.222;2022-11-15T06:41:20;10.70;99.90
23379;DHT22;11862;46.070;13.222;2022-11-15T06:43:58;10.60;99.90
23379;DHT22;11862;46.070;13.222;2022-11-15T06:46:41;10.60;99.90
23379;DHT22;11862;46.070;13.222;2022-11-15T06:52:56;10.80;99.90
23379;DHT22;11862;46.070;13.222;2022-11-15T06:55:50;10.90;99.90
23379;DHT22;11862;46.070;13.222;2022-11-15T06:58:27;10.90;99.90
23379;DHT22;11862;46.070;13.222;2022-11-15T07:04:06;11.00;99.90
23379;DHT22;11862;46.070;13.222;2022-11-15T07:06:37;11.10;99.90
23379;DHT22;11862;46.070;13.222;2022-11-15T07:09:19;11.10;99.90
23379;DHT22;11862;46.070;13.222;2022-11-15T07:11:47;11.10;99.90
23379;DHT22;11862;46.070;13.222;2022-11-15T07:14:14;11.40;99.90
23379;DHT22;11862;46.070;13.222;2022-11-15T07:16:44;12.10;99.90
23379;DHT22;11862;46.070;13.222;2022-11-15T07:19:16;12.60;99.90
23379;DHT22;11862;46.070;13.222;2022-11-15T07:21:42;13.10;99.90
23379;DHT22;11862;46.070;13.222;2022-11-15T07:24:08;13.50;99.90
23379;DHT22;11862;46.070;13.222;2022-11-15T07:26:35;13.60;99.90
23379;DHT22;11862;46.070;13.222;2022-11-15T07:29:07;13.80;99.90
23379;DHT22;11862;46.070;13.222;2022-11-15T07:31:35;14.10;99.90
23379;DHT22;11862;46.070;13.222;2022-11-15T07:34:03;14.50;99.90
23379;DHT22;11862;46.070;13.222;2022-11-15T07:36:32;14.70;99.90
23379;DHT22;11862;46.070;13.222;2022-11-15T07:38:58;14.40;99.90
23379;DHT22;11862;46.070;13.222;2022-11-15T07:41:24;14.80;99.90
23379;DHT22;11862;46.070;13.222;2022-11-15T07:43:52;14.40;99.90
23379;DHT22;11862;46.070;13.222;2022-11-15T07:46:18;14.60;99.90
23379;DHT22;11862;46.070;13.222;2022-11-15T07:48:45;15.10;99.90
23379;DHT22;11862;46.070;13.222;2022-11-15T07:51:16;15.80;99.90
23379;DHT22;11862;46.070;13.222;2022-11-15T07:53:55;16.90;99.90
23379;DHT22;11862;46.070;13.222;2022-11-15T07:56:29;17.10;99.90
23379;DHT22;11862;46.070;13.222;2022-11-15T07:58:56;16.90;99.90
23379;DHT22;11862;46.070;13.222;2022-11-15T08:01:26;16.90;99.90
23379;DHT22;11862;46.070;13.222;2022-11-15T08:03:54;18.20;99.90
23379;DHT22;11862;46.070;13.222;2022-11-15T08:06:24;18.50;99.90
23379;DHT22;11862;46.070;13.222;2022-11-15T08:09:00;17.40;99.90
23379;DHT22;11862;46.070;13.222;2022-11-15T08:11:26;17.50;99.90
23379;DHT22;11862;46.070;13.222;2022-11-15T08:13:56;17.90;99.90
23379;DHT22;11862;46.070;13.222;2022-11-15T08:16:25;18.20;99.90
23379;DHT22;11862;46.070;13.222;2022-11-15T08:18:52;18.60;99.90
23379;DHT22;11862;46.070;13.222;2022-11-15T08:21:21;18.80;99.90
23379;DHT22;11862;46.070;13.222;2022-11-15T08:23:49;19.20;99.90
23379;DHT22;11862;46.070;13.222;2022-11-15T08:26:26;18.80;99.90
23379;DHT22;11862;46.070;13.222;2022-11-15T08:28:55;18.50;99.90
23379;DHT22;11862;46.070;13.222;2022-11-15T08:31:25;18.60;99.90
23379;DHT22;11862;46.070;13.222;2022-11-15T08:33:52;18.20;99.90
23379;DHT22;11862;46.070;13.222;2022-11-15T08:36:21;19.30;99.90
23379;DHT22;11862;46.070;13.222;2022-11-15T08:38:51;20.50;99.90
23379;DHT22;11862;46.070;13.222;2022-11-15T08:41:30;21.10;99.90
23379;DHT22;11862;46.070;13.222;2022-11-15T08:43:58;21.20;99.90
23379;DHT22;11862;46.070;13.222;2022-11-15T08:46:28;20.80;99.90
23379;DHT22;11862;46.070;13.222;2022-11-15T08:48:58;20.70;99.90
23379;DHT22;11862;46.070;13.222;2022-11-15T08:51:25;20.70;99.90
23379;DHT22;11862;46.070;13.222;2022-11-15T08:54:02;21.00;99.90
23379;DHT22;11862;46.070;13.222;2022-11-15T08:56:48;21.00;99.90
23379;DHT22;11862;46.070;13.222;2022-11-15T08:59:18;20.60;99.90
23379;DHT22;11862;46.070;13.222;2022-11-15T09:01:51;20.90;99.90
23379;DHT22;11862;46.070;13.222;2022-11-15T09:04:24;21.20;99.90
23379;DHT22;11862;46.070;13.222;2022-11-15T09:07:02;20.70;99.90
23379;DHT22;11862;46.070;13.222;2022-11-15T09:09:41;20.30;99.90
23379;DHT22;11862;46.070;13.222;2022-11-15T09:12:12;20.80;99.90
23379;DHT22;11862;46.070;13.222;2022-11-15T09:14:42;21.30;99.90
23379;DHT22;11862;46.070;13.222;2022-11-15T09:17:21;21.40;99.90
23379;DHT22;11862;46.070;13.222;2022-11-15T09:19:57;21.60;99.90
23379;DHT22;11862;46.070;13.222;2022-11-15T09:22:38;21.00;99.90
23379;DHT22;11862;46.070;13.222;2022-11-15T09:27:57;21.20;99.90
23379;DHT22;11862;46.070;13.222;2022-11-15T09:30:27;21.20;99.90
23379;DHT22;11862;46.070;13.222;2022-11-15T09:32:57;21.80;99.90
23379;DHT22;11862;46.070;13.222;2022-11-15T09:35:24;21.50;99.90
23379;DHT22;11862;46.070;13.222;2022-11-15T09:37:57;19.50;99.90
23379;DHT22;11862;46.070;13.222;2022-11-15T09:40:30;19.40;99.90
23379;DHT22;11862;46.070;13.222;2022-11-15T09:48:57;19.00;99.90
23379;DHT22;11862;46.070;13.222;2022-11-15T09:51:45;19.60;99.90
23379;DHT22;11862;46.070;13.222;2022-11-15T09:57:56;20.60;99.90
23379;DHT22;11862;46.070;13.222;2022-11-15T10:00:40;20.60;99.90
23379;DHT22;11862;46.070;13.222;2022-11-15T10:03:30;20.00;99.90
23379;DHT22;11862;46.070;13.222;2022-11-15T10:06:05;20.50;99.90
23379;DHT22;11862;46.070;13.222;2022-11-15T10:11:58;19.80;99.90
23379;DHT22;11862;46.070;13.222;2022-11-15T10:14:36;20.00;99.90
23379;DHT22;11862;46.070;13.222;2022-11-15T10:22:46;20.10;99.90
23379;DHT22;11862;46.070;13.222;2022-11-15T10:25:25;20.10;99.90
23379;DHT22;11862;46.070;13.222;2022-11-15T10:30:29;19.90;99.90
23379;DHT22;11862;46.070;13.222;2022-11-15T10:33:10;19.80;99.90
23379;DHT22;11862;46.070;13.222;2022-11-15T10:35:40;20.10;99.90
23379;DHT22;11862;46.070;13.222;2022-11-15T10:38:11;19.90;99.90
23379;DHT22;11862;46.070;13.222;2022-11-15T10:40:40;19.70;99.90
23379;DHT22;11862;46.070;13.222;2022-11-15T10:45:42;19.60;99.90
23379;DHT22;11862;46.070;13.222;2022-11-15T10:48:20;19.60;99.90
23379;DHT22;11862;46.070;13.222;2022-11-15T10:50:49;19.50;99.90
23379;DHT22;11862;46.070;13.222;2022-11-15T10:53:43;19.40;99.90
23379;DHT22;11862;46.070;13.222;2022-11-15T10:56:13;19.50;99.90
23379;DHT22;11862;46.070;13.222;2022-11-15T10:58:50;19.10;99.90
23379;DHT22;11862;46.070;13.222;2022-11-15T11:01:50;19.30;99.90
23379;DHT22;11862;46.070;13.222;2022-11-15T11:04:18;19.30;99.90
23379;DHT22;11862;46.070;13.222;2022-11-15T11:07:19;19.30;99.90
23379;DHT22;11862;46.070;13.222;2022-11-15T11:10:19;19.50;99.90
23379;DHT22;11862;46.070;13.222;2022-11-15T11:12:53;19.80;99.90
23379;DHT22;11862;46.070;13.222;2022-11-15T11:15:32;19.20;99.90
23379;DHT22;11862;46.070;13.222;2022-11-15T11:18:25;19.00;99.90
23379;DHT22;11862;46.070;13.222;2022-11-15T11:20:58;18.70;99.90
23379;DHT22;11862;46.070;13.222;2022-11-15T11:26:40;18.30;99.90
23379;DHT22;11862;46.070;13.222;2022-11-15T11:32:34;17.70;99.90
23379;DHT22;11862;46.070;13.222;2022-11-15T11:37:52;17.30;99.90
23379;DHT22;11862;46.070;13.222;2022-11-15T11:40:33;17.00;99.90
23379;DHT22;11862;46.070;13.222;2022-11-15T11:43:06;16.90;99.90
23379;DHT22;11862;46.070;13.222;2022-11-15T11:45:53;16.90;99.90
23379;DHT22;11862;46.070;13.222;2022-11-15T11:48:51;17.00;99.90
23379;DHT22;11862;46.070;13.222;2022-11-15T11:51:42;17.40;99.90
23379;DHT22;11862;46.070;13.222;2022-11-15T11:57:25;18.00;99.90
23379;DHT22;11862;46.070;13.222;2022-11-15T12:04:35;17.60;99.90
23379;DHT22;11862;46.070;13.222;2022-11-15T12:07:29;17.30;99.90
23379;DHT22;11862;46.070;13.222;2022-11-15T12:13:02;16.70;99.90
23379;DHT22;11862;46.070;13.222;2022-11-15T12:18:36;16.90;99.90
23379;DHT22;11862;46.070;13.222;2022-11-15T12:23:59;17.00;99.90
23379;DHT22;11862;46.070;13.222;2022-11-15T12:26:37;17.10;99.90
23379;DHT22;11862;46.070;13.222;2022-11-15T12:29:15;16.90;99.90
23379;DHT22;11862;46.070;13.222;2022-11-15T12:31:49;16.70;99.90
23379;DHT22;11862;46.070;13.222;2022-11-15T12:36:51;16.50;99.90
23379;DHT22;11862;46.070;13.222;2022-11-15T12:39:18;16.40;99.90
23379;DHT22;11862;46.070;13.222;2022-11-15T12:52:08;15.50;99.90
23379;DHT22;11862;46.070;13.222;2022-11-15T13:04:49;15.50;99.90
23379;DHT22;11862;46.070;13.222;2022-11-15T13:10:14;15.80;99.90
23379;DHT22;11862;46.070;13.222;2022-11-15T13:12:54;15.90;99.90
23379;DHT22;11862;46.070;13.222;2022-11-15T13:15:34;15.80;99.90
23379;DHT22;11862;46.070;13.222;2022-11-15T13:18:48;15.70;99.90
23379;DHT22;11862;46.070;13.222;2022-11-15T13:20:49;15.60;99.90
23379;DHT22;11862;46.070;13.222;2022-11-15T13:23:16;15.60;99.90
23379;DHT22;11862;46.070;13.222;2022-11-15T13:26:01;15.50;99.90
23379;DHT22;11862;46.070;13.222;2022-11-15T13:28:33;15.40;99.90
23379;DHT22;11862;46.070;13.222;2022-11-15T13:31:17;15.40;99.90
23379;DHT22;11862;46.070;13.222;2022-11-15T13:33:47;15.40;99.90
23379;DHT22;11862;46.070;13.222;2022-11-15T13:36:30;15.50;99.90
23379;DHT22;11862;46.070;13.222;2022-11-15T13:39:11;15.40;99.90
23379;DHT22;11862;46.070;13.222;2022-11-15T13:41:48;15.40;99.90
23379;DHT22;11862;46.070;13.222;2022-11-15T13:44:24;15.40;99.90
23379;DHT22;11862;46.070;13.222;2022-11-15T13:47:15;15.30;99.90
23379;DHT22;11862;46.070;13.222;2022-11-15T13:49:42;15.20;99.90
23379;DHT22;11862;46.070;13.222;2022-11-15T13:52:14;15.20;99.90
23379;DHT22;11862;46.070;13.222;2022-11-15T13:54:56;15.00;99.90
23379;DHT22;11862;46.070;13.222;2022-11-15T13:57:25;15.00;99.90
23379;DHT22;11862;46.070;13.222;2022-11-15T13:59:55;15.10;99.90
23379;DHT22;11862;46.070;13.222;2022-11-15T14:02:36;15.00;99.90
23379;DHT22;11862;46.070;13.222;2022-11-15T14:05:05;14.90;99.90
23379;DHT22;11862;46.070;13.222;2022-11-15T14:10:33;14.80;99.90
23379;DHT22;11862;46.070;13.222;2022-11-15T14:13:03;14.80;99.90
23379;DHT22;11862;46.070;13.222;2022-11-15T14:15:34;14.80;99.90
23379;DHT22;11862;46.070;13.222;2022-11-15T14:18:05;14.80;99.90
23379;DHT22;11862;46.070;13.222;2022-11-15T14:26:32;14.80;99.90
23379;DHT22;11862;46.070;13.222;2022-11-15T14:31:50;14.80;99.90
23379;DHT22;11862;46.070;13.222;2022-11-15T14:34:16;14.80;99.90
23379;DHT22;11862;46.070;13.222;2022-11-15T14:36:42;14.80;99.90
23379;DHT22;11862;46.070;13.222;2022-11-15T14:39:09;14.80;99.90
23379;DHT22;11862;46.070;13.222;2022-11-15T14:41:36;14.80;99.90
23379;DHT22;11862;46.070;13.222;2022-11-15T14:44:06;14.70;99.90
23379;DHT22;11862;46.070;13.222;2022-11-15T14:46:32;14.80;99.90
23379;DHT22;11862;46.070;13.222;2022-11-15T14:48:58;14.70;99.90
23379;DHT22;11862;46.070;13.222;2022-11-15T14:51:24;14.70;99.90
23379;DHT22;11862;46.070;13.222;2022-11-15T14:53:58;14.70;99.90
23379;DHT22;11862;46.070;13.222;2022-11-15T14:56:24;14.70;99.90
23379;DHT22;11862;46.070;13.222;2022-11-15T14:58:50;14.70;99.90
23379;DHT22;11862;46.070;13.222;2022-11-15T15:01:35;14.60;99.90
23379;DHT22;11862;46.070;13.222;2022-11-15T15:04:01;14.50;99.90
23379;DHT22;11862;46.070;13.222;2022-11-15T15:06:31;14.50;99.90
23379;DHT22;11862;46.070;13.222;2022-11-15T15:08:57;14.30;99.90
23379;DHT22;11862;46.070;13.222;2022-11-15T15:11:27;14.30;99.90
23379;DHT22;11862;46.070;13.222;2022-11-15T15:13:54;14.30;99.90
23379;DHT22;11862;46.070;13.222;2022-11-15T15:16:23;14.20;99.90
23379;DHT22;11862;46.070;13.222;2022-11-15T15:18:50;14.20;99.90
23379;DHT22;11862;46.070;13.222;2022-11-15T15:21:27;14.20;99.90
23379;DHT22;11862;46.070;13.222;2022-11-15T15:23:56;14.20;99.90
23379;DHT22;11862;46.070;13.222;2022-11-15T15:26:25;14.10;99.90
23379;DHT22;11862;46.070;13.222;2022-11-15T15:28:51;14.00;99.90
23379;DHT22;11862;46.070;13.222;2022-11-15T15:31:18;13.90;99.90
23379;DHT22;11862;46.070;13.222;2022-11-15T15:33:44;13.90;99.90
23379;DHT22;11862;46.070;13.222;2022-11-15T15:36:16;13.90;99.90
23379;DHT22;11862;46.070;13.222;2022-11-15T15:38:43;13.90;99.90
23379;DHT22;11862;46.070;13.222;2022-11-15T15:41:16;13.80;99.90
23379;DHT22;11862;46.070;13.222;2022-11-15T15:43:42;13.90;99.90
23379;DHT22;11862;46.070;13.222;2022-11-15T15:46:15;13.80;99.90
23379;DHT22;11862;46.070;13.222;2022-11-15T15:48:43;13.70;99.90
23379;DHT22;11862;46.070;13.222;2022-11-15T15:51:09;13.70;99.90
23379;DHT22;11862;46.070;13.222;2022-11-15T15:53:36;13.60;99.90
23379;DHT22;11862;46.070;13.222;2022-11-15T15:56:02;13.60;99.90
23379;DHT22;11862;46.070;13.222;2022-11-15T15:58:28;13.50;99.90
23379;DHT22;11862;46.070;13.222;2022-11-15T16:01:00;13.50;99.90
23379;DHT22;11862;46.070;13.222;2022-11-15T16:03:29;13.50;99.90
23379;DHT22;11862;46.070;13.222;2022-11-15T16:05:55;13.60;99.90
23379;DHT22;11862;46.070;13.222;2022-11-15T16:08:23;13.50;99.90
23379;DHT22;11862;46.070;13.222;2022-11-15T16:10:50;13.50;99.90
23379;DHT22;11862;46.070;13.222;2022-11-15T16:13:16;13.40;99.90
23379;DHT22;11862;46.070;13.222;2022-11-15T16:15:43;13.50;99.90
23379;DHT22;11862;46.070;13.222;2022-11-15T16:18:15;13.40;99.90
23379;DHT22;11862;46.070;13.222;2022-11-15T16:20:49;13.40;99.90
23379;DHT22;11862;46.070;13.222;2022-11-15T16:23:20;13.30;99.90
23379;DHT22;11862;46.070;13.222;2022-11-15T16:25:50;13.30;99.90
23379;DHT22;11862;46.070;13.222;2022-11-15T16:28:27;13.30;99.90
23379;DHT22;11862;46.070;13.222;2022-11-15T16:33:27;13.20;99.90
23379;DHT22;11862;46.070;13.222;2022-11-15T16:35:53;13.20;99.90
23379;DHT22;11862;46.070;13.222;2022-11-15T16:38:22;13.10;99.90
23379;DHT22;11862;46.070;13.222;2022-11-15T16:40:51;13.10;99.90
23379;DHT22;11862;46.070;13.222;2022-11-15T16:43:18;13.20;99.90
23379;DHT22;11862;46.070;13.222;2022-11-15T16:45:49;13.20;99.90
23379;DHT22;11862;46.070;13.222;2022-11-15T16:48:23;13.20;99.90
23379;DHT22;11862;46.070;13.222;2022-11-15T16:50:50;13.30;99.90
23379;DHT22;11862;46.070;13.222;2022-11-15T16:53:22;13.30;99.90
23379;DHT22;11862;46.070;13.222;2022-11-15T16:55:55;13.30;99.90
23379;DHT22;11862;46.070;13.222;2022-11-15T16:58:24;13.30;99.90
23379;DHT22;11862;46.070;13.222;2022-11-15T17:00:54;13.30;99.90
23379;DHT22;11862;46.070;13.222;2022-11-15T17:03:27;13.30;99.90
23379;DHT22;11862;46.070;13.222;2022-11-15T17:05:57;13.40;99.90
23379;DHT22;11862;46.070;13.222;2022-11-15T17:08:26;13.30;99.90
23379;DHT22;11862;46.070;13.222;2022-11-15T17:10:56;13.30;99.90
23379;DHT22;11862;46.070;13.222;2022-11-15T17:13:22;13.40;99.90
23379;DHT22;11862;46.070;13.222;2022-11-15T17:15:49;13.40;99.90
23379;DHT22;11862;46.070;13.222;2022-11-15T17:18:15;13.50;99.90
23379;DHT22;11862;46.070;13.222;2022-11-15T17:20:41;13.50;99.90
23379;DHT22;11862;46.070;13.222;2022-11-15T17:23:12;13.50;99.90
23379;DHT22;11862;46.070;13.222;2022-11-15T17:26:01;13.60;99.90
23379;DHT22;11862;46.070;13.222;2022-11-15T17:28:39;13.60;99.90
23379;DHT22;11862;46.070;13.222;2022-11-15T17:31:10;13.60;99.90
23379;DHT22;11862;46.070;13.222;2022-11-15T17:33:37;13.60;99.90
23379;DHT22;11862;46.070;13.222;2022-11-15T17:36:09;13.60;99.90
23379;DHT22;11862;46.070;13.222;2022-11-15T17:38:45;13.50;99.90
23379;DHT22;11862;46.070;13.222;2022-11-15T17:41:20;13.50;99.90
23379;DHT22;11862;46.070;13.222;2022-11-15T17:43:50;13.50;99.90
23379;DHT22;11862;46.070;13.222;2022-11-15T17:46:18;13.50;99.90
23379;DHT22;11862;46.070;13.222;2022-11-15T17:48:47;13.50;99.90